createdAt,value
2022-08-13T00:00:45.026Z,68.63
2022-08-13T00:05:47.829Z,68.69
2022-08-13T00:10:50.042Z,68.83
2022-08-13T00:15:56.568Z,68.67
2022-08-13T00:21:00.056Z,67.91
2022-08-13T00:26:03.572Z,68.50
2022-08-13T00:31:06.979Z,68.63
2022-08-13T00:36:13.868Z,68.42
2022-08-13T00:41:58.525Z,68.24
2022-08-13T00:47:22.374Z,68.36
2022-08-13T00:52:32.245Z,68.43
2022-08-13T00:57:35.554Z,68.63
2022-08-13T01:02:37.994Z,68.81
2022-08-13T01:07:52.910Z,69.11
2022-08-13T01:13:01.456Z,69.03
2022-08-13T01:18:06.524Z,69.08
2022-08-13T01:23:10.477Z,69.48
2022-08-13T01:28:14.487Z,69.80
2022-08-13T01:33:18.777Z,69.82
2022-08-13T01:38:27.177Z,70.04
2022-08-13T01:48:58.743Z,70.13
2022-08-13T01:54:11.462Z,70.70
2022-08-13T01:59:24.613Z,70.95
2022-08-13T02:04:26.960Z,70.62
2022-08-13T02:09:59.279Z,70.75
2022-08-13T02:14:52.074Z,70.89
2022-08-13T02:19:57.166Z,70.92
2022-08-13T02:25:01.286Z,71.01
2022-08-13T02:30:04.365Z,70.70
2022-08-13T02:35:06.859Z,71.15
2022-08-13T02:40:29.366Z,71.47
2022-08-13T02:45:35.726Z,72.03
2022-08-13T02:50:45.771Z,72.04
2022-08-13T02:55:54.464Z,71.98
2022-08-13T03:00:58.707Z,72.00
2022-08-13T03:06:01.067Z,71.76
2022-08-13T03:11:04.371Z,71.60
2022-08-13T03:16:09.374Z,71.78
2022-08-13T03:21:17.290Z,72.28
2022-08-13T03:26:23.602Z,72.11
2022-08-13T03:31:29.305Z,72.57
2022-08-13T03:36:57.793Z,72.63
2022-08-13T03:42:01.616Z,72.51
2022-08-13T03:47:31.101Z,72.71
2022-08-13T03:52:36.257Z,72.88
2022-08-13T03:58:03.953Z,72.82
2022-08-13T04:08:28.094Z,73.19
2022-08-13T04:14:01.102Z,73.02
2022-08-13T04:19:04.428Z,73.06
2022-08-13T04:24:12.089Z,72.82
2022-08-13T04:29:21.015Z,72.16
2022-08-13T04:34:39.214Z,72.11
2022-08-13T04:40:07.176Z,71.73
2022-08-13T04:45:12.335Z,71.06
2022-08-13T04:50:16.639Z,71.03
2022-08-13T04:55:19.997Z,71.46
2022-08-13T05:00:25.868Z,71.37
2022-08-13T05:05:29.729Z,71.46
2022-08-13T05:10:32.801Z,71.23
2022-08-13T05:15:41.872Z,71.33
2022-08-13T05:20:54.335Z,70.83
2022-08-13T05:26:08.093Z,70.48
2022-08-13T05:31:22.100Z,70.22
2022-08-13T05:38:09.456Z,69.90
2022-08-13T05:42:07.877Z,69.62
2022-08-13T05:47:16.357Z,69.55
2022-08-13T05:52:36.822Z,69.72
2022-08-13T05:57:41.400Z,69.81
2022-08-13T06:03:02.781Z,69.84
2022-08-13T06:08:40.427Z,69.64
2022-08-13T06:14:04.647Z,69.61
2022-08-13T06:19:00.959Z,68.68
2022-08-13T06:24:06.557Z,68.04
2022-08-13T06:29:12.954Z,67.38
2022-08-13T06:34:34.025Z,66.34
2022-08-13T06:39:38.958Z,66.47
2022-08-13T06:44:45.488Z,66.97
2022-08-13T06:49:58.303Z,67.01
2022-08-13T06:56:05.148Z,67.36
2022-08-13T07:00:31.705Z,67.67
2022-08-13T07:05:43.098Z,67.96
2022-08-13T07:11:08.783Z,68.26
2022-08-13T07:16:12.280Z,68.50
2022-08-13T07:21:42.528Z,68.36
2022-08-13T07:26:47.010Z,68.50
2022-08-13T07:31:59.908Z,67.59
2022-08-13T07:37:06.470Z,68.33
2022-08-13T07:42:10.545Z,68.35
2022-08-13T07:47:17.365Z,68.56
2022-08-13T07:52:28.821Z,68.36
2022-08-13T07:57:37.645Z,68.44
2022-08-13T08:02:41.886Z,68.56
2022-08-13T08:08:06.166Z,68.50
2022-08-13T08:13:11.635Z,68.75
2022-08-13T08:18:34.335Z,69.20
2022-08-13T08:23:50.691Z,69.67
2022-08-13T08:28:54.222Z,69.74
2022-08-13T08:34:00.474Z,69.72
2022-08-13T08:39:38.256Z,69.60
2022-08-13T08:44:46.370Z,68.57
2022-08-13T08:49:48.881Z,67.93
2022-08-13T08:54:56.682Z,67.59
2022-08-13T09:00:17.968Z,67.74
2022-08-13T09:05:27.007Z,67.02
2022-08-13T09:10:34.670Z,67.57
2022-08-13T09:15:40.871Z,65.68
2022-08-13T09:20:54.687Z,65.22
2022-08-13T09:25:57.438Z,65.64
2022-08-13T09:30:59.440Z,65.41
2022-08-13T09:36:01.478Z,65.83
2022-08-13T09:41:20.113Z,66.63
2022-08-13T09:46:28.449Z,64.53
2022-08-13T09:51:55.358Z,64.21
2022-08-13T09:56:59.484Z,65.83
2022-08-13T10:02:08.246Z,64.29
2022-08-13T10:07:19.588Z,64.81
2022-08-13T10:12:22.855Z,65.87
2022-08-13T10:17:42.855Z,67.11
2022-08-13T10:22:55.743Z,66.85
2022-08-13T10:27:59.309Z,66.43
2022-08-13T10:33:03.629Z,66.24
2022-08-13T10:38:07.792Z,65.03
2022-08-13T10:43:22.123Z,66.29
2022-08-13T10:48:26.728Z,66.32
2022-08-13T10:53:47.068Z,65.98
2022-08-13T10:58:52.214Z,65.89
2022-08-13T11:04:05.961Z,65.83
2022-08-13T11:09:24.338Z,64.03
2022-08-13T11:14:34.587Z,64.00
2022-08-13T11:19:49.447Z,59.90
2022-08-13T11:25:10.012Z,60.15
2022-08-13T11:30:34.904Z,62.84
2022-08-13T11:35:39.513Z,59.44
2022-08-13T11:40:52.718Z,56.33
2022-08-13T11:45:55.631Z,56.70
2022-08-13T11:50:59.306Z,55.81
2022-08-13T11:56:04.570Z,56.39
2022-08-13T12:01:11.847Z,58.83
2022-08-13T12:06:15.052Z,59.69
2022-08-13T12:11:31.650Z,60.49
2022-08-13T12:16:44.185Z,59.93
2022-08-13T12:21:50.689Z,60.62
2022-08-13T12:26:55.831Z,61.32
2022-08-13T12:32:14.278Z,62.24
2022-08-13T12:37:26.695Z,62.21
2022-08-13T12:42:55.323Z,64.89
2022-08-13T12:48:30.723Z,63.14
2022-08-13T12:53:53.562Z,65.19
2022-08-13T12:58:54.982Z,64.51
2022-08-13T13:08:59.300Z,64.96
2022-08-13T13:14:27.667Z,65.61
2022-08-13T13:19:27.114Z,66.24
2022-08-13T13:24:47.433Z,67.40
2022-08-13T13:29:52.248Z,65.93
2022-08-13T13:34:56.663Z,67.10
2022-08-13T13:39:59.119Z,67.42
2022-08-13T13:45:02.365Z,67.45
2022-08-13T13:50:12.268Z,67.76
2022-08-13T13:55:22.516Z,68.29
2022-08-13T14:00:29.308Z,68.63
2022-08-13T14:05:50.117Z,68.76
2022-08-13T14:10:54.808Z,68.98
2022-08-13T14:16:00.562Z,68.76
2022-08-13T14:21:03.844Z,68.93
2022-08-13T14:26:07.521Z,69.31
2022-08-13T14:31:12.108Z,69.34
2022-08-13T14:36:15.324Z,69.27
2022-08-13T14:41:19.621Z,69.21
2022-08-13T14:46:22.305Z,69.66
2022-08-13T14:51:27.591Z,69.74
2022-08-13T14:56:31.911Z,69.39
2022-08-13T15:01:41.821Z,70.35
2022-08-13T15:06:44.497Z,68.69
2022-08-13T15:11:51.299Z,69.23
2022-08-13T15:16:55.248Z,70.27
2022-08-13T15:21:58.479Z,70.44
2022-08-13T15:27:00.511Z,70.22
2022-08-13T15:32:06.170Z,70.84
2022-08-13T15:37:10.522Z,70.73
2022-08-13T15:42:13.654Z,70.45
2022-08-13T15:47:19.676Z,70.82
2022-08-13T15:52:25.642Z,70.78
2022-08-13T15:57:33.279Z,70.71
2022-08-13T16:02:48.289Z,71.89
2022-08-13T16:07:53.184Z,71.51
2022-08-13T16:13:15.292Z,71.64
2022-08-13T16:18:36.407Z,72.20
2022-08-13T16:23:58.239Z,72.43
2022-08-13T16:29:01.284Z,71.96
2022-08-13T16:34:05.508Z,71.91
2022-08-13T16:39:08.643Z,73.29
2022-08-13T16:44:37.251Z,73.93
2022-08-13T16:49:39.797Z,74.55
2022-08-13T16:54:42.551Z,74.76
2022-08-13T16:59:47.896Z,75.06
2022-08-13T17:05:19.159Z,76.32
2022-08-13T17:10:24.098Z,75.80
2022-08-13T17:15:27.030Z,76.42
2022-08-13T17:20:29.651Z,76.65
2022-08-13T17:25:38.208Z,77.88
2022-08-13T17:30:42.452Z,78.49
2022-08-13T17:35:47.260Z,80.37
2022-08-13T17:40:52.066Z,81.08
2022-08-13T17:45:59.463Z,80.86
2022-08-13T17:51:08.782Z,80.57
2022-08-13T17:56:18.411Z,81.70
2022-08-13T18:01:27.913Z,82.27
2022-08-13T18:06:35.340Z,82.25
2022-08-13T18:11:41.457Z,82.61
2022-08-13T18:17:06.645Z,82.64
2022-08-13T18:22:07.850Z,82.35
2022-08-13T18:27:18.584Z,83.28
2022-08-13T18:32:41.632Z,82.41
2022-08-13T18:37:46.716Z,82.61
2022-08-13T18:42:53.299Z,82.41
2022-08-13T18:47:56.321Z,82.74
2022-08-13T18:53:23.143Z,81.52
2022-08-13T18:58:21.075Z,81.65
2022-08-13T19:03:58.028Z,81.79
2022-08-13T19:09:19.321Z,81.79
2022-08-13T19:14:28.004Z,81.42
2022-08-13T19:19:54.345Z,80.92
2022-08-13T19:30:20.069Z,80.64
2022-08-13T19:35:25.330Z,81.09
2022-08-13T19:40:35.773Z,81.83
2022-08-13T19:45:50.997Z,82.08
2022-08-13T19:51:23.037Z,82.01
2022-08-13T19:56:34.108Z,83.19
2022-08-13T20:01:39.956Z,84.06
2022-08-13T20:06:46.833Z,83.53
2022-08-13T20:11:51.331Z,81.46
2022-08-13T20:16:54.104Z,81.26
2022-08-13T20:21:56.193Z,81.45
2022-08-13T20:26:59.390Z,81.33
2022-08-13T20:32:01.681Z,81.42
2022-08-13T20:37:08.878Z,81.36
2022-08-13T20:42:19.492Z,81.37
2022-08-13T20:47:21.881Z,80.50
2022-08-13T20:52:33.644Z,80.59
2022-08-13T20:57:40.754Z,80.38
2022-08-13T21:02:53.732Z,80.14
2022-08-13T21:07:57.919Z,79.68
2022-08-13T21:13:05.285Z,80.29
2022-08-13T21:18:13.547Z,79.59
2022-08-13T21:23:17.480Z,79.13
2022-08-13T21:28:38.717Z,78.49
2022-08-13T21:33:42.378Z,78.04
2022-08-13T21:38:44.362Z,77.76
2022-08-13T21:43:50.901Z,76.77
2022-08-13T21:48:56.279Z,76.87
2022-08-13T21:53:59.182Z,76.90
2022-08-13T21:59:09.404Z,77.80
2022-08-13T22:04:14.444Z,77.54
2022-08-13T22:09:17.498Z,77.86
2022-08-13T22:14:19.573Z,78.14
2022-08-13T22:19:23.478Z,77.99
2022-08-13T22:24:25.640Z,78.08
2022-08-13T22:29:46.381Z,77.83
2022-08-13T22:34:51.485Z,78.06
2022-08-13T22:39:58.857Z,78.64
2022-08-13T22:45:01.306Z,78.57
2022-08-13T22:50:12.130Z,78.60
2022-08-13T22:55:14.559Z,78.58
2022-08-13T23:07:14.384Z,78.22
2022-08-13T23:12:18.696Z,78.16
2022-08-13T23:17:21.083Z,78.31
2022-08-13T23:22:32.232Z,78.51
2022-08-13T23:27:35.529Z,78.54
2022-08-13T23:32:37.927Z,78.45
2022-08-13T23:37:39.971Z,78.99
2022-08-13T23:42:45.952Z,78.96
2022-08-13T23:47:47.901Z,79.16
2022-08-13T23:52:50.338Z,79.42
2022-08-13T23:57:56.355Z,79.25
